createdAt,value
2023-03-27T00:01:16.290Z,98098.22
2023-03-27T00:03:43.345Z,98112.00
2023-03-27T00:06:16.778Z,98086.78
2023-03-27T00:08:44.683Z,98103.13
2023-03-27T00:11:11.767Z,98125.16
2023-03-27T00:13:49.206Z,98128.41
2023-03-27T00:16:22.746Z,98122.44
2023-03-27T00:18:49.745Z,98101.66
2023-03-27T00:21:16.490Z,98114.22
2023-03-27T00:23:43.042Z,98126.16
2023-03-27T00:26:10.639Z,98136.88
2023-03-27T00:28:37.197Z,98137.81
2023-03-27T00:31:04.232Z,98124.22
2023-03-27T00:33:30.707Z,98157.09
2023-03-27T00:35:57.242Z,98139.66
2023-03-27T00:38:24.452Z,98157.56
2023-03-27T00:40:54.418Z,98167.97
2023-03-27T00:43:23.097Z,98164.13
2023-03-27T00:45:51.904Z,98145.78
2023-03-27T00:48:20.665Z,98185.09
2023-03-27T00:50:47.963Z,98174.56
2023-03-27T00:53:17.900Z,98165.34
2023-03-27T00:55:47.293Z,98165.97
2023-03-27T00:58:18.402Z,98161.72
2023-03-27T01:00:44.934Z,98172.25
2023-03-27T01:03:11.823Z,98186.50
2023-03-27T01:05:38.432Z,98185.41
2023-03-27T01:08:05.214Z,98170.13
2023-03-27T01:10:59.348Z,98206.06
2023-03-27T01:13:44.728Z,98202.22
2023-03-27T01:16:32.208Z,98194.75
2023-03-27T01:19:07.775Z,98205.75
2023-03-27T01:21:43.230Z,98218.47
2023-03-27T01:24:28.201Z,98225.94
2023-03-27T01:27:18.546Z,98230.22
2023-03-27T01:29:50.589Z,98233.88
2023-03-27T01:32:38.745Z,98247.06
2023-03-27T01:35:39.262Z,98235.88
2023-03-27T01:38:22.914Z,98237.53
2023-03-27T01:41:09.883Z,98242.09
2023-03-27T01:43:41.724Z,98243.31
2023-03-27T01:46:16.734Z,98263.03
2023-03-27T01:48:56.140Z,98269.59
2023-03-27T01:51:34.430Z,98264.69
2023-03-27T01:54:05.778Z,98258.84
2023-03-27T01:56:37.466Z,98262.84
2023-03-27T01:59:11.485Z,98262.53
2023-03-27T02:01:42.380Z,98264.50
2023-03-27T02:04:13.555Z,98268.78
2023-03-27T02:06:48.709Z,98276.59
2023-03-27T02:09:22.213Z,98258.47
2023-03-27T02:11:58.183Z,98300.78
2023-03-27T02:14:29.641Z,98293.25
2023-03-27T02:16:59.136Z,98300.63
2023-03-27T02:19:41.296Z,98292.50
2023-03-27T02:22:08.020Z,98294.31
2023-03-27T02:24:34.534Z,98320.38
2023-03-27T02:27:26.708Z,98315.31
2023-03-27T02:30:07.363Z,98335.50
2023-03-27T02:32:42.747Z,98333.66
2023-03-27T02:35:33.922Z,98335.00
2023-03-27T02:38:11.641Z,98336.81
2023-03-27T02:40:45.496Z,98342.44
2023-03-27T02:43:42.702Z,98346.84
2023-03-27T02:46:21.837Z,98345.31
2023-03-27T02:48:52.194Z,98357.69
2023-03-27T02:51:25.022Z,98359.97
2023-03-27T02:53:58.395Z,98336.97
2023-03-27T02:56:27.610Z,98374.50
2023-03-27T02:59:04.040Z,98370.22
2023-03-27T03:01:32.591Z,98372.22
2023-03-27T03:04:01.961Z,98385.97
2023-03-27T03:06:31.190Z,98391.59
2023-03-27T03:09:02.237Z,98388.41
2023-03-27T03:11:29.649Z,98397.09
2023-03-27T03:13:56.426Z,98405.81
2023-03-27T03:16:23.517Z,98333.91
2023-03-27T03:18:50.862Z,98404.78
2023-03-27T03:21:17.384Z,98401.63
2023-03-27T03:23:58.274Z,98437.38
2023-03-27T03:26:26.961Z,98450.06
2023-03-27T03:29:01.410Z,98453.72
2023-03-27T03:31:44.396Z,98459.63
2023-03-27T03:34:16.731Z,98439.50
2023-03-27T03:36:44.562Z,98476.53
2023-03-27T03:39:12.490Z,98450.50
2023-03-27T03:41:39.400Z,98472.28
2023-03-27T03:44:05.817Z,98482.81
2023-03-27T03:46:32.308Z,98497.47
2023-03-27T03:48:59.448Z,98463.88
2023-03-27T03:51:26.309Z,98501.66
2023-03-27T03:53:52.970Z,98488.38
2023-03-27T03:56:19.624Z,98517.16
2023-03-27T03:58:46.167Z,98519.91
2023-03-27T04:01:12.664Z,98523.53
2023-03-27T04:03:39.482Z,98485.53
2023-03-27T04:06:07.635Z,98498.28
2023-03-27T04:08:34.983Z,98523.13
2023-03-27T04:11:01.613Z,98542.34
2023-03-27T04:13:28.135Z,98514.56
2023-03-27T04:15:55.331Z,98555.53
2023-03-27T04:18:24.559Z,98542.34
2023-03-27T04:20:51.247Z,98557.63
2023-03-27T04:23:20.512Z,98569.47
2023-03-27T04:25:47.382Z,98569.47
2023-03-27T04:28:17.402Z,98578.41
2023-03-27T04:30:44.672Z,98592.34
2023-03-27T04:33:18.296Z,98569.34
2023-03-27T04:35:45.997Z,98592.69
2023-03-27T04:38:31.676Z,98588.81
2023-03-27T04:40:58.485Z,98604.84
2023-03-27T04:43:26.409Z,98609.66
2023-03-27T04:45:53.408Z,98616.91
2023-03-27T04:48:21.453Z,98622.16
2023-03-27T04:50:51.282Z,98636.84
2023-03-27T04:53:20.393Z,98620.88
2023-03-27T04:55:51.144Z,98648.09
2023-03-27T04:58:18.867Z,98655.34
2023-03-27T05:00:50.409Z,98664.88
2023-03-27T05:03:20.961Z,98636.09
2023-03-27T05:05:49.561Z,98672.59
2023-03-27T05:08:16.974Z,98671.31
2023-03-27T05:10:44.431Z,98681.97
2023-03-27T05:13:11.018Z,98691.84
2023-03-27T05:15:39.005Z,98676.13
2023-03-27T05:18:07.205Z,98698.69
2023-03-27T05:20:35.081Z,98686.59
2023-03-27T05:23:02.160Z,98709.25
2023-03-27T05:25:31.681Z,98717.91
2023-03-27T05:27:58.535Z,98729.38
2023-03-27T05:30:26.873Z,98720.00
2023-03-27T05:32:53.821Z,98709.63
2023-03-27T05:35:22.492Z,98730.28
2023-03-27T05:37:53.489Z,98734.59
2023-03-27T05:40:22.332Z,98740.91
2023-03-27T05:42:50.441Z,98741.34
2023-03-27T05:45:17.923Z,98744.50
2023-03-27T05:47:49.839Z,98758.19
2023-03-27T05:50:17.916Z,98765.25
2023-03-27T05:52:44.406Z,98773.91
2023-03-27T05:55:11.478Z,98775.44
2023-03-27T05:57:39.363Z,98764.84
2023-03-27T06:00:14.131Z,98769.59
2023-03-27T06:02:44.931Z,98785.72
2023-03-27T06:05:16.003Z,98784.94
2023-03-27T06:07:43.762Z,98791.94
2023-03-27T06:10:13.740Z,98796.56
2023-03-27T06:12:41.643Z,98795.03
2023-03-27T06:15:09.424Z,98794.19
2023-03-27T06:17:38.523Z,98804.72
2023-03-27T06:20:12.919Z,98787.31
2023-03-27T06:22:49.698Z,98807.03
2023-03-27T06:25:16.846Z,98808.97
2023-03-27T06:27:47.676Z,98818.38
2023-03-27T06:30:17.485Z,98813.22
2023-03-27T06:32:49.388Z,98814.00
2023-03-27T06:35:16.723Z,98814.00
2023-03-27T06:37:48.326Z,98806.84
2023-03-27T06:40:25.612Z,98831.56
2023-03-27T06:42:56.217Z,98826.78
2023-03-27T06:45:24.569Z,98816.41
2023-03-27T06:47:54.678Z,98838.72
2023-03-27T06:50:25.192Z,98830.41
2023-03-27T06:52:51.792Z,98837.78
2023-03-27T06:55:20.990Z,98811.72
2023-03-27T06:57:52.606Z,98845.50
2023-03-27T07:00:24.294Z,98838.75
2023-03-27T07:02:55.279Z,98845.72
2023-03-27T07:05:22.805Z,98850.34
2023-03-27T07:07:49.580Z,98853.75
2023-03-27T07:10:16.195Z,98850.19
2023-03-27T07:12:47.169Z,98863.47
2023-03-27T07:15:14.201Z,98851.22
2023-03-27T07:17:48.768Z,98859.38
2023-03-27T07:20:16.391Z,98848.81
2023-03-27T07:22:43.137Z,98863.75
2023-03-27T07:25:11.265Z,98870.19
2023-03-27T07:27:38.714Z,98867.19
2023-03-27T07:30:08.075Z,98868.31
2023-03-27T07:32:37.985Z,98855.25
2023-03-27T07:35:05.440Z,98871.81
2023-03-27T07:37:31.990Z,98873.53
2023-03-27T07:39:58.513Z,98883.97
2023-03-27T07:42:25.046Z,98879.16
2023-03-27T07:44:51.940Z,98883.69
2023-03-27T07:47:18.384Z,98903.19
2023-03-27T07:49:44.880Z,98893.88
2023-03-27T07:52:11.568Z,98894.25
2023-03-27T07:54:38.066Z,98893.63
2023-03-27T07:57:05.258Z,98847.34
2023-03-27T07:59:32.486Z,98873.69
2023-03-27T08:01:58.950Z,98903.84
2023-03-27T08:04:25.460Z,98897.78
2023-03-27T08:06:54.623Z,98897.44
2023-03-27T08:09:21.202Z,98913.31
2023-03-27T08:11:50.489Z,98917.63
2023-03-27T08:14:17.268Z,98911.44
2023-03-27T08:16:43.883Z,98920.59
2023-03-27T08:19:11.946Z,98925.91
2023-03-27T08:21:38.551Z,98923.16
2023-03-27T08:24:05.486Z,98926.59
2023-03-27T08:26:32.211Z,98925.13
2023-03-27T08:28:59.221Z,98928.78
2023-03-27T08:31:27.873Z,98932.75
2023-03-27T08:33:54.528Z,98941.47
2023-03-27T08:36:21.104Z,98940.56
2023-03-27T08:38:47.548Z,98940.44
2023-03-27T08:41:27.411Z,98934.41
2023-03-27T08:43:56.248Z,98934.28
2023-03-27T08:46:27.116Z,98949.72
2023-03-27T08:49:16.536Z,98952.94
2023-03-27T08:51:52.487Z,98959.31
2023-03-27T08:54:35.896Z,98945.97
2023-03-27T08:57:04.915Z,98960.97
2023-03-27T08:59:31.532Z,98959.97
2023-03-27T09:02:09.573Z,98964.72
2023-03-27T09:05:14.283Z,98974.97
2023-03-27T09:07:52.161Z,98964.50
2023-03-27T09:10:50.001Z,98974.44
2023-03-27T09:13:20.923Z,98966.59
2023-03-27T09:15:53.775Z,98986.31
2023-03-27T09:18:34.048Z,98983.00
2023-03-27T09:21:10.968Z,98988.63
2023-03-27T09:23:46.327Z,98981.38
2023-03-27T09:26:21.636Z,98995.31
2023-03-27T09:28:51.522Z,98993.81
2023-03-27T09:31:29.066Z,99010.25
2023-03-27T09:33:58.452Z,98996.16
2023-03-27T09:36:24.959Z,99006.84
2023-03-27T09:38:58.590Z,98985.66
2023-03-27T09:41:41.340Z,99015.84
2023-03-27T09:44:07.976Z,99007.19
2023-03-27T09:46:36.706Z,99003.28
2023-03-27T09:49:12.526Z,99007.91
2023-03-27T09:51:46.083Z,99001.84
2023-03-27T09:54:14.528Z,99018.28
2023-03-27T09:56:45.013Z,99010.03
2023-03-27T09:59:23.930Z,99001.59
2023-03-27T10:01:53.220Z,99032.50
2023-03-27T10:04:22.946Z,99023.81
2023-03-27T10:07:01.615Z,99026.59
2023-03-27T10:09:38.885Z,99021.63
2023-03-27T10:12:05.535Z,99033.19
2023-03-27T10:14:34.680Z,99023.72
2023-03-27T10:17:02.379Z,99018.28
2023-03-27T10:19:37.139Z,99018.50
2023-03-27T10:22:15.990Z,99028.53
2023-03-27T10:24:46.346Z,99022.16
2023-03-27T10:27:19.432Z,99002.88
2023-03-27T10:29:45.901Z,99013.81
2023-03-27T10:32:12.443Z,99027.84
2023-03-27T10:34:51.444Z,99020.53
2023-03-27T10:37:27.959Z,99033.63
2023-03-27T10:39:56.144Z,99038.97
2023-03-27T10:42:26.452Z,99040.31
2023-03-27T10:44:56.235Z,99036.06
2023-03-27T10:47:25.646Z,99050.03
2023-03-27T10:50:03.804Z,99055.97
2023-03-27T10:53:09.131Z,99052.16
2023-03-27T10:55:44.852Z,99029.41
2023-03-27T10:58:23.700Z,99061.81
2023-03-27T11:01:05.515Z,99028.44
2023-03-27T11:04:07.109Z,99055.38
2023-03-27T11:06:40.821Z,99063.66
2023-03-27T11:09:34.054Z,99056.63
2023-03-27T11:12:07.369Z,99051.03
2023-03-27T11:15:02.446Z,99073.88
2023-03-27T11:17:38.318Z,99063.00
2023-03-27T11:20:16.141Z,99049.47
2023-03-27T11:22:47.152Z,99057.19
2023-03-27T11:25:21.197Z,99072.63
2023-03-27T11:27:55.954Z,99065.94
2023-03-27T11:30:55.902Z,99068.34
2023-03-27T11:33:34.685Z,99063.03
2023-03-27T11:36:03.814Z,99066.16
2023-03-27T11:38:32.933Z,99061.72
2023-03-27T11:40:59.616Z,99059.69
2023-03-27T11:43:26.284Z,99064.75
2023-03-27T11:46:04.799Z,99068.63
2023-03-27T11:48:52.673Z,99074.81
2023-03-27T11:51:49.723Z,99068.28
2023-03-27T11:54:24.337Z,99070.75
2023-03-27T11:56:55.722Z,99075.88
2023-03-27T11:59:34.321Z,99064.72
2023-03-27T12:02:28.944Z,99059.97
2023-03-27T12:05:01.732Z,99063.34
2023-03-27T12:07:38.950Z,99067.47
2023-03-27T12:10:30.247Z,99070.69
2023-03-27T12:13:21.544Z,99067.44
2023-03-27T12:16:11.773Z,99064.00
2023-03-27T12:19:13.880Z,99069.63
2023-03-27T12:21:55.820Z,99058.22
2023-03-27T12:24:57.185Z,99065.16
2023-03-27T12:27:42.169Z,99070.47
2023-03-27T12:30:26.556Z,99044.91
2023-03-27T12:33:00.230Z,99061.28
2023-03-27T12:35:30.638Z,99060.34
2023-03-27T12:37:59.925Z,99081.59
2023-03-27T12:40:37.793Z,99068.97
2023-03-27T12:43:10.873Z,99071.03
2023-03-27T12:45:47.432Z,99064.28
2023-03-27T12:48:19.835Z,99070.88
2023-03-27T12:51:12.128Z,99069.69
2023-03-27T12:53:38.637Z,99064.56
2023-03-27T12:56:27.348Z,99068.75
2023-03-27T12:58:54.765Z,99057.66
2023-03-27T13:01:52.358Z,99068.72
2023-03-27T13:04:24.929Z,99071.94
2023-03-27T13:07:20.384Z,99082.50
2023-03-27T13:09:54.669Z,99058.66
2023-03-27T13:12:47.375Z,99067.91
2023-03-27T13:16:22.672Z,99073.00
2023-03-27T13:19:13.040Z,99060.56
2023-03-27T13:21:46.998Z,99084.13
2023-03-27T13:24:36.677Z,99110.63
2023-03-27T13:27:25.488Z,99104.72
2023-03-27T13:29:53.111Z,99093.22
2023-03-27T13:32:31.067Z,99098.06
2023-03-27T13:35:08.507Z,99099.50
2023-03-27T13:37:36.850Z,99094.78
2023-03-27T13:40:26.686Z,99123.03
2023-03-27T13:43:04.909Z,99123.44
2023-03-27T13:45:53.919Z,99122.75
2023-03-27T13:48:24.972Z,99106.56
2023-03-27T13:51:29.060Z,99115.00
2023-03-27T13:54:08.486Z,99103.41
2023-03-27T13:56:53.610Z,99104.97
2023-03-27T13:59:31.568Z,99099.31
2023-03-27T14:02:04.199Z,99097.19
2023-03-27T14:05:17.476Z,99093.50
2023-03-27T14:07:58.413Z,99085.56
2023-03-27T14:11:01.840Z,99112.84
2023-03-27T14:14:03.927Z,99132.56
2023-03-27T14:16:50.306Z,99172.72
2023-03-27T14:19:41.730Z,99190.16
2023-03-27T14:22:14.671Z,99200.38
2023-03-27T14:24:53.522Z,99202.69
2023-03-27T14:27:21.387Z,99203.69
2023-03-27T14:29:51.949Z,99217.16
2023-03-27T14:32:19.068Z,99206.78
2023-03-27T14:34:54.515Z,99206.72
2023-03-27T14:37:29.850Z,99200.47
2023-03-27T14:39:57.962Z,99194.28
2023-03-27T14:42:33.074Z,99174.59
2023-03-27T14:45:10.936Z,99183.03
2023-03-27T14:47:37.515Z,99186.91
2023-03-27T14:50:06.148Z,99200.13
2023-03-27T14:52:35.954Z,99208.22
2023-03-27T14:55:04.015Z,99195.84
2023-03-27T14:57:30.569Z,99199.97
2023-03-27T14:59:57.407Z,99196.50
2023-03-27T15:02:26.692Z,99212.34
2023-03-27T15:05:00.995Z,99225.66
2023-03-27T15:07:33.888Z,99256.94
2023-03-27T15:10:06.461Z,99266.69
2023-03-27T15:12:37.445Z,99266.38
2023-03-27T15:15:21.599Z,99267.97
2023-03-27T15:17:50.532Z,99263.56
2023-03-27T15:20:19.485Z,99266.75
2023-03-27T15:22:51.248Z,99245.69
2023-03-27T15:25:30.881Z,99263.72
2023-03-27T15:28:00.222Z,99234.00
2023-03-27T15:30:40.300Z,99260.38
2023-03-27T15:33:12.349Z,99237.41
2023-03-27T15:35:45.006Z,99242.91
2023-03-27T15:38:17.097Z,99236.47
2023-03-27T15:40:46.707Z,99223.09
2023-03-27T15:43:13.268Z,99245.81
2023-03-27T15:45:41.059Z,99245.81
2023-03-27T15:48:18.186Z,99259.72
2023-03-27T15:50:57.879Z,99254.81
2023-03-27T15:53:38.245Z,99265.31
2023-03-27T15:56:29.773Z,99273.06
2023-03-27T15:59:01.947Z,99253.94
2023-03-27T16:01:32.641Z,99277.69
2023-03-27T16:04:04.983Z,99278.56
2023-03-27T16:06:36.508Z,99284.91
2023-03-27T16:09:05.759Z,99290.56
2023-03-27T16:11:34.982Z,99289.19
2023-03-27T16:14:01.887Z,99298.66
2023-03-27T16:16:31.053Z,99303.22
2023-03-27T16:19:12.819Z,99289.56
2023-03-27T16:21:54.127Z,99303.50
2023-03-27T16:24:20.893Z,99306.09
2023-03-27T16:26:47.624Z,99283.72
2023-03-27T16:29:14.869Z,99310.53
2023-03-27T16:31:41.777Z,99302.22
2023-03-27T16:34:23.338Z,99292.25
2023-03-27T16:36:50.326Z,99294.06
2023-03-27T16:39:17.151Z,99294.78
2023-03-27T16:41:43.744Z,99303.19
2023-03-27T16:44:11.086Z,99283.88
2023-03-27T16:46:37.613Z,99292.81
2023-03-27T16:49:04.190Z,99295.56
2023-03-27T16:51:31.164Z,99297.47
2023-03-27T16:53:57.677Z,99306.97
2023-03-27T16:56:24.274Z,99293.94
2023-03-27T16:58:51.153Z,99312.97
2023-03-27T17:01:17.750Z,99300.84
2023-03-27T17:03:44.384Z,99325.00
2023-03-27T17:06:12.847Z,99333.72
2023-03-27T17:08:39.450Z,99320.63
2023-03-27T17:11:08.801Z,99346.03
2023-03-27T17:13:35.955Z,99324.75
2023-03-27T17:16:03.286Z,99330.94
2023-03-27T17:18:29.868Z,99343.41
2023-03-27T17:20:56.417Z,99347.72
2023-03-27T17:23:23.287Z,99354.72
2023-03-27T17:25:50.097Z,99364.16
2023-03-27T17:28:17.042Z,99365.75
2023-03-27T17:30:56.677Z,99368.38
2023-03-27T17:33:30.394Z,99354.97
2023-03-27T17:35:57.525Z,99380.16
2023-03-27T17:38:24.699Z,99384.50
2023-03-27T17:40:51.518Z,99393.06
2023-03-27T17:43:18.294Z,99367.03
2023-03-27T17:45:45.092Z,99378.31
2023-03-27T17:48:11.556Z,99380.28
2023-03-27T17:50:38.739Z,99384.09
2023-03-27T17:53:05.291Z,99385.72
2023-03-27T17:55:31.850Z,99388.88
2023-03-27T17:58:08.718Z,99396.41
2023-03-27T18:00:37.421Z,99389.41
2023-03-27T18:03:04.618Z,99371.25
2023-03-27T18:05:37.479Z,99408.22
2023-03-27T18:08:04.458Z,99395.13
2023-03-27T18:10:31.366Z,99406.69
2023-03-27T18:12:58.734Z,99405.09
2023-03-27T18:15:25.422Z,99428.66
2023-03-27T18:17:51.986Z,99434.84
2023-03-27T18:20:18.449Z,99427.28
2023-03-27T18:22:45.187Z,99442.69
2023-03-27T18:25:11.817Z,99445.13
2023-03-27T18:27:40.255Z,99460.69
2023-03-27T18:30:09.117Z,99458.59
2023-03-27T18:32:35.618Z,99475.69
2023-03-27T18:35:02.123Z,99459.81
2023-03-27T18:37:28.551Z,99467.75
2023-03-27T18:39:55.170Z,99476.03
2023-03-27T18:42:21.672Z,99481.16
2023-03-27T18:44:48.357Z,99481.94
2023-03-27T18:47:14.852Z,99481.53
2023-03-27T18:49:43.336Z,99478.03
2023-03-27T18:52:12.008Z,99476.44
2023-03-27T18:54:38.433Z,99483.50
2023-03-27T18:57:05.567Z,99490.94
2023-03-27T18:59:32.175Z,99481.16
2023-03-27T19:01:58.715Z,99483.09
2023-03-27T19:04:25.380Z,99453.88
2023-03-27T19:06:51.865Z,99480.75
2023-03-27T19:09:19.942Z,99477.59
2023-03-27T19:11:48.056Z,99467.38
2023-03-27T19:14:14.592Z,99471.63
2023-03-27T19:16:41.129Z,99476.63
2023-03-27T19:19:07.665Z,99473.16
2023-03-27T19:21:34.038Z,99429.63
2023-03-27T19:24:00.639Z,99477.50
2023-03-27T19:26:27.223Z,99477.19
2023-03-27T19:28:53.733Z,99479.19
2023-03-27T19:31:20.371Z,99466.00
2023-03-27T19:33:46.964Z,99465.28
2023-03-27T19:36:13.907Z,99486.72
2023-03-27T19:38:40.555Z,99478.84
2023-03-27T19:41:10.839Z,99484.31
2023-03-27T19:43:37.348Z,99485.06
2023-03-27T19:46:15.935Z,99484.63
2023-03-27T19:48:44.451Z,99497.56
2023-03-27T19:51:11.087Z,99489.72
2023-03-27T19:53:37.930Z,99490.91
2023-03-27T19:56:04.717Z,99460.16
2023-03-27T19:58:31.548Z,99487.84
2023-03-27T20:00:59.264Z,99481.22
2023-03-27T20:03:27.241Z,99484.44
2023-03-27T20:05:56.032Z,99490.63
2023-03-27T20:08:37.973Z,99484.75
2023-03-27T20:11:05.336Z,99488.31
2023-03-27T20:13:35.429Z,99470.81
2023-03-27T20:16:07.241Z,99478.56
2023-03-27T20:18:34.160Z,99483.25
2023-03-27T20:21:02.032Z,99478.56
2023-03-27T20:23:31.984Z,99476.53
2023-03-27T20:26:00.497Z,99477.72
2023-03-27T20:28:27.470Z,99480.88
2023-03-27T20:30:53.916Z,99476.56
2023-03-27T20:33:20.820Z,99478.22
2023-03-27T20:35:47.383Z,99471.19
2023-03-27T20:38:15.022Z,99480.16
2023-03-27T20:40:53.698Z,99482.56
2023-03-27T20:43:22.802Z,99474.69
2023-03-27T20:45:53.395Z,99482.53
2023-03-27T20:48:21.930Z,99459.22
2023-03-27T20:50:51.376Z,99480.16
2023-03-27T20:53:19.169Z,99473.13
2023-03-27T20:56:02.853Z,99484.91
2023-03-27T20:58:31.826Z,99472.84
2023-03-27T21:00:58.685Z,99481.41
2023-03-27T21:03:25.376Z,99476.75
2023-03-27T21:05:51.952Z,99453.81
2023-03-27T21:08:18.419Z,99477.94
2023-03-27T21:10:53.580Z,99466.28
2023-03-27T21:13:20.533Z,99476.44
2023-03-27T21:15:47.368Z,99479.50
2023-03-27T21:18:13.868Z,99467.91
2023-03-27T21:20:40.348Z,99482.72
2023-03-27T21:23:06.745Z,99471.78
2023-03-27T21:25:34.413Z,99473.38
2023-03-27T21:28:01.155Z,99488.66
2023-03-27T21:30:46.911Z,99487.88
2023-03-27T21:33:16.098Z,99495.34
2023-03-27T21:35:45.715Z,99500.03
2023-03-27T21:38:13.741Z,99503.13
2023-03-27T21:40:40.827Z,99512.53
2023-03-27T21:43:08.838Z,99509.78
2023-03-27T21:45:36.286Z,99484.09
2023-03-27T21:48:03.029Z,99506.63
2023-03-27T21:50:29.788Z,99503.09
2023-03-27T21:52:56.914Z,99501.50
2023-03-27T21:55:23.370Z,99503.09
2023-03-27T21:57:49.943Z,99484.41
2023-03-27T22:00:16.736Z,99497.31
2023-03-27T22:02:43.227Z,99497.69
2023-03-27T22:05:09.777Z,99496.09
2023-03-27T22:07:36.385Z,99478.72
2023-03-27T22:10:06.226Z,99503.63
2023-03-27T22:12:36.402Z,99500.94
2023-03-27T22:15:03.536Z,99483.88
2023-03-27T22:17:30.345Z,99515.84
2023-03-27T22:19:57.528Z,99512.69
2023-03-27T22:22:24.887Z,99477.63
2023-03-27T22:24:51.409Z,99506.47
2023-03-27T22:27:18.270Z,99509.22
2023-03-27T22:29:44.725Z,99512.38
2023-03-27T22:32:11.460Z,99503.06
2023-03-27T22:34:37.967Z,99500.69
2023-03-27T22:37:04.493Z,99520.97
2023-03-27T22:39:31.535Z,99522.94
2023-03-27T22:41:58.157Z,99461.88
2023-03-27T22:44:24.751Z,99530.84
2023-03-27T22:46:52.895Z,99530.03
2023-03-27T22:49:19.972Z,99526.13
2023-03-27T22:51:46.489Z,99527.69
2023-03-27T22:54:12.977Z,99524.94
2023-03-27T22:56:39.445Z,99514.06
2023-03-27T22:59:06.093Z,99530.88
2023-03-27T23:01:32.892Z,99536.31
2023-03-27T23:03:59.529Z,99542.97
2023-03-27T23:06:26.282Z,99548.81
2023-03-27T23:08:53.005Z,99550.41
2023-03-27T23:11:20.018Z,99558.19
2023-03-27T23:13:46.561Z,99560.88
2023-03-27T23:16:13.187Z,99565.97
2023-03-27T23:18:40.242Z,99564.41
2023-03-27T23:21:09.706Z,99569.88
2023-03-27T23:23:37.668Z,99567.91
2023-03-27T23:26:05.360Z,99569.44
2023-03-27T23:28:37.123Z,99549.97
2023-03-27T23:31:06.494Z,99569.00
2023-03-27T23:33:36.102Z,99567.06
2023-03-27T23:36:08.830Z,99569.44
2023-03-27T23:38:35.547Z,99571.03
2023-03-27T23:41:02.476Z,99572.63
2023-03-27T23:43:30.018Z,99576.56
2023-03-27T23:45:59.305Z,99573.84
2023-03-27T23:48:29.545Z,99591.84
2023-03-27T23:50:57.084Z,99587.97
2023-03-27T23:53:25.739Z,99585.66
2023-03-27T23:55:52.843Z,99591.88
2023-03-27T23:58:19.958Z,99593.88
